Thunder radar more information blitzortung!


Radar de pluja more information rain snow radar


Visita la nostra xarxa de llocs de meteo:

Template documentation
and downloads

And another site



Wind From: 11-12-2017 11:00 Until: 14:59 warning for: Wind Level: Yellow info button

Pagina Historial Weather Underground text

Diari Resum Agost 29, 2017 Unitats:  Imperial    Mètric   Tant
« Previous Dia
SegĂźent Dia »
Diari Setmana Mensual Anual Personalitzada
  Maxima: Minima: Media:
Temperatura: 91.8 °F 70 °F 80.2 °F
Punt de rosada: 66.6 °F 54 °F 61.3 °F
Humitat: 76 % 35 % 54 %
Wind Speed: 13.8 mph 0 mph 3.8 mph
RĂ fegues de vent: 17 mph - -
Vent:- - SW
Pression baro: 30 in 29.8 in -
Precipitacions: 0 in    
Historical Graphs
 
 
Dades de taula per Agost 29, 2017
Temps Temperatura Punt de rosada Pression baro Vent Wind Speed RĂ fegues de vent Humitat Rainfall Rate (Hourly)
00:03 77.9 °F 64.8 °F 29.9 in SW 3.5 mph 3.5 mph 64 % 0 in
00:05 73.8 °F 65.3 °F 29.9 in WSW 1 mph 3 mph 75 % 0 in
00:15 73.8 °F 64.9 °F 29.9 in WSW 2 mph 2 mph 74 % 0 in
00:25 74.1 °F 64.9 °F 29.9 in WSW 2 mph 3 mph 73 % 0 in
00:35 74.5 °F 65.3 °F 29.9 in West 2 mph 4 mph 73 % 0 in
00:45 74.5 °F 64.9 °F 29.8 in West 5 mph 5 mph 72 % 0 in
00:55 74.7 °F 64.9 °F 29.8 in West 3 mph 4 mph 72 % 0 in
01:05 74.5 °F 64.9 °F 29.8 in WSW 2 mph 3 mph 72 % 0 in
01:25 74.3 °F 64.8 °F 29.8 in WSW 1 mph 3 mph 72 % 0 in
01:35 73.9 °F 64.2 °F 29.8 in Calm   2 mph 72 % 0 in
01:45 73.8 °F 64.2 °F 29.8 in WSW 1 mph 2 mph 72 % 0 in
01:55 73.6 °F 64 °F 29.8 in Calm   1 mph 72 % 0 in
02:05 73.2 °F 63.7 °F 29.9 in WSW 1 mph 2 mph 72 % 0 in
02:15 72.9 °F 63.7 °F 29.8 in SW 1 mph 2 mph 73 % 0 in
02:25 72.7 °F 63.5 °F 29.8 in SW 1 mph 2 mph 73 % 0 in
02:35 72.5 °F 63.3 °F 29.9 in Calm   2 mph 73 % 0 in
02:45 72.3 °F 63.1 °F 29.9 in Calm   2 mph 73 % 0 in
02:55 72 °F 62.8 °F 29.9 in SW 2 mph 2 mph 73 % 0 in
03:05 71.8 °F 63 °F 29.9 in SW 1 mph 3 mph 74 % 0 in
03:15 71.4 °F 63.1 °F 29.9 in SW 1 mph 3 mph 75 % 0 in
03:25 71.1 °F 62.8 °F 29.9 in WSW 1 mph 2 mph 75 % 0 in
03:35 70.9 °F 62.6 °F 29.9 in WSW 1 mph 2 mph 75 % 0 in
03:45 71.1 °F 62.8 °F 29.9 in SW 1 mph 2 mph 75 % 0 in
03:55 71.4 °F 63.5 °F 29.9 in SW 1 mph 2 mph 76 % 0 in
04:05 72 °F 63.1 °F 29.9 in Calm   3 mph 74 % 0 in
04:15 72.1 °F 63.3 °F 29.9 in WNW 1 mph 2 mph 74 % 0 in
04:25 72.3 °F 63.7 °F 29.9 in SW 1 mph 2 mph 74 % 0 in
04:35 73 °F 63.9 °F 29.9 in SW 1 mph 2 mph 73 % 0 in
04:45 74.1 °F 64.6 °F 29.9 in SW 1 mph 2 mph 72 % 0 in
04:55 74.8 °F 64.8 °F 29.9 in SW 1 mph 2 mph 71 % 0 in
09:58 78.8 °F 65.1 °F 29.9 in SSE 2.9 mph 2.9 mph 63 % 0 in
09:59 79.2 °F 65.5 °F 29.9 in SSE 3.5 mph 3.5 mph 63 % 0 in
10:01 79.3 °F 65.7 °F 29.9 in SSE 2 mph 2 mph 63 % 0 in
10:06 79.7 °F 65.5 °F 29.9 in ESE 3.5 mph 3.5 mph 62 % 0 in
10:11 80.8 °F 66 °F 29.9 in SSE 2.3 mph 2.3 mph 61 % 0 in
10:21 80.2 °F 65.7 °F 29.9 in ENE 2.3 mph 2.3 mph 61 % 0 in
10:26 79.3 °F 64.8 °F 29.9 in East 3.5 mph 3.5 mph 61 % 0 in
10:31 79.2 °F 64.6 °F 29.9 in NE 2.3 mph 2.3 mph 61 % 0 in
10:36 79.3 °F 64.8 °F 29.9 in NE 2.3 mph 2.3 mph 61 % 0 in
10:41 79.9 °F 65.1 °F 29.9 in SW 2 mph 2 mph 61 % 0 in
10:46 80.4 °F 65.7 °F 29.9 in WNW 2.3 mph 2.3 mph 61 % 0 in
10:51 80.8 °F 65.7 °F 29.9 in ENE 3.8 mph 3.8 mph 60 % 0 in
10:56 81.7 °F 66 °F 29.9 in NNE 2.3 mph 2.3 mph 59 % 0 in
11:01 82 °F 65.3 °F 29.9 in East 2.4 mph 2.4 mph 57 % 0 in
11:06 82.2 °F 66 °F 29.9 in ESE 1.2 mph 1.2 mph 58 % 0 in
11:11 82.6 °F 65.8 °F 29.9 in ENE 4.6 mph 4.6 mph 57 % 0 in
11:16 82.4 °F 65.1 °F 29.9 in ESE 2.3 mph 2.3 mph 56 % 0 in
11:21 83.3 °F 66.6 °F 29.9 in SW 1.2 mph 1.2 mph 57 % 0 in
11:26 84.6 °F 66.6 °F 29.9 in West 3.5 mph 3.5 mph 55 % 0 in
11:31 83.7 °F 66.4 °F 29.9 in SW 4.6 mph 4.6 mph 56 % 0 in
11:36 84.2 °F 65.1 °F 29.9 in SE 2.3 mph 2.3 mph 53 % 0 in
11:41 85.6 °F 66 °F 29.9 in SW 3.6 mph 3.6 mph 52 % 0 in
11:42 85.8 °F 66.2 °F 29.9 in South 3.5 mph 3.5 mph 52 % 0 in
11:47 86.5 °F 66.4 °F 29.9 in SSW 2.3 mph 2.3 mph 51 % 0 in
11:52 86 °F 65.8 °F 29.9 in South 4.6 mph 4.6 mph 51 % 0 in
12:02 86.2 °F 65.5 °F 29.9 in WSW 3.5 mph 3.5 mph 50 % 0 in
12:07 86.2 °F 65.5 °F 29.9 in SSW 3.5 mph 3.5 mph 50 % 0 in
12:12 86.4 °F 64.9 °F 29.9 in NW 1.6 mph 1.6 mph 49 % 0 in
12:17 86.2 °F 64.8 °F 29.9 in West 4.9 mph 4.9 mph 49 % 0 in
12:22 86 °F 64 °F 29.9 in South 2.3 mph 2.3 mph 48 % 0 in
12:27 86.5 °F 64.6 °F 29.9 in SW 2.3 mph 2.3 mph 48 % 0 in
12:32 86.9 °F 64.8 °F 29.9 in West 2.3 mph 2.3 mph 48 % 0 in
12:37 87.6 °F 65.5 °F 29.9 in SW 3.5 mph 3.5 mph 48 % 0 in
12:38 87.8 °F 65.1 °F 29.9 in South 1.6 mph 1.6 mph 47 % 0 in
12:43 87.6 °F 65.5 °F 29.9 in WSW 3.5 mph 3.5 mph 48 % 0 in
12:48 88 °F 64.6 °F 29.9 in SSW 2.3 mph 2.3 mph 46 % 0 in
12:53 87.8 °F 65.1 °F 29.9 in WSW 4.7 mph 4.7 mph 47 % 0 in
12:58 87.6 °F 64.9 °F 29.9 in WSW 4.6 mph 4.6 mph 47 % 0 in
13:03 88.2 °F 64.8 °F 29.9 in SW 3.5 mph 3.5 mph 46 % 0 in
13:08 88.3 °F 64.2 °F 29.9 in ESE 2.3 mph 2.6 mph 45 % 0 in
13:13 90 °F 65.8 °F 29.9 in South 3.5 mph 3.5 mph 45 % 0 in
13:18 89.6 °F 64.8 °F 29.9 in SSE 4.6 mph 4.6 mph 44 % 0 in
13:23 90 °F 65.8 °F 29.9 in SW 6 mph 6 mph 45 % 0 in
13:28 90.1 °F 65.3 °F 29.8 in SSW 3.5 mph 3.5 mph 44 % 0 in
13:33 90.3 °F 65.5 °F 29.8 in WSW 3.8 mph 3.8 mph 44 % 0 in
13:38 90 °F 65.1 °F 29.8 in WSW 5.8 mph 5.8 mph 44 % 0 in
13:43 89.1 °F 63.7 °F 29.8 in South 5.8 mph 5.8 mph 43 % 0 in
13:48 89.8 °F 64.2 °F 29.8 in South 9.2 mph 9.2 mph 43 % 0 in
13:53 91.2 °F 65.7 °F 29.8 in South 5.9 mph 5.9 mph 43 % 0 in
13:58 91.8 °F 64 °F 29.9 in SE 5.8 mph 5.8 mph 40 % 0 in
14:03 90.9 °F 62.4 °F 29.9 in SW 5.8 mph 5.9 mph 39 % 0 in
14:08 91 °F 62.6 °F 29.9 in SW 8.1 mph 8.1 mph 39 % 0 in
14:13 90.5 °F 61.3 °F 29.9 in West 11.5 mph 11.5 mph 38 % 0 in
14:18 89.4 °F 59.7 °F 29.9 in WSW 13.8 mph 13.8 mph 37 % 0 in
14:23 88.9 °F 59.2 °F 29.9 in SSW 9.2 mph 9.2 mph 37 % 0 in
14:28 88.9 °F 59.2 °F 29.9 in South 3.5 mph 3.5 mph 37 % 0 in
14:33 89.1 °F 60.1 °F 29.9 in SSW 4.6 mph 4.6 mph 38 % 0 in
14:38 89.2 °F 59.5 °F 29.9 in SSW 4 mph 4 mph 37 % 0 in
14:43 89.1 °F 59.4 °F 29.9 in SW 6.9 mph 6.9 mph 37 % 0 in
14:48 88.9 °F 59.2 °F 29.9 in ESE 6.4 mph 6.4 mph 37 % 0 in
14:53 88.9 °F 59.2 °F 29.9 in SW 4.6 mph 4.6 mph 37 % 0 in
14:58 88.3 °F 58.8 °F 29.9 in SSW 9.2 mph 9.2 mph 37 % 0 in
15:03 88 °F 57.7 °F 29.9 in WSW 8.1 mph 8.1 mph 36 % 0 in
15:08 88.2 °F 57.7 °F 29.9 in SSW 5.8 mph 5.8 mph 36 % 0 in
15:13 88 °F 57.7 °F 29.9 in SW 6.4 mph 6.4 mph 36 % 0 in
15:18 88.2 °F 57.7 °F 29.9 in SSW 6.9 mph 6.9 mph 36 % 0 in
15:23 88.2 °F 57.7 °F 29.9 in SW 8.1 mph 8.1 mph 36 % 0 in
15:28 88.3 °F 57.2 °F 29.9 in WSW 6.9 mph 6.9 mph 35 % 0 in
15:33 88 °F 57.7 °F 29.9 in SSW 12.7 mph 12.7 mph 36 % 0 in
15:38 87.6 °F 58.8 °F 29.9 in SSW 5.9 mph 5.9 mph 38 % 0 in
15:43 87.3 °F 59.4 °F 29.9 in South 6.9 mph 6.9 mph 39 % 0 in
15:48 86.9 °F 59.7 °F 29.9 in SSW 8.1 mph 8.1 mph 40 % 0 in
15:53 87.1 °F 59.7 °F 29.9 in SSW 6.9 mph 6.9 mph 40 % 0 in
15:58 86.7 °F 59.5 °F 29.9 in WSW 5.8 mph 5.8 mph 40 % 0 in
16:03 86.9 °F 60.4 °F 29.9 in WSW 6.2 mph 6.2 mph 41 % 0 in
16:08 86.4 °F 59.2 °F 29.9 in SSW 8.1 mph 8.1 mph 40 % 0 in
16:13 86 °F 58.8 °F 29.9 in WSW 6.9 mph 6.9 mph 40 % 0 in
16:18 85.6 °F 59.2 °F 29.9 in WSW 8.1 mph 8.1 mph 41 % 0 in
16:23 85.5 °F 59.2 °F 29.9 in SSE 6.4 mph 6.4 mph 41 % 0 in
16:28 85.3 °F 59.5 °F 29.9 in SSW 5.8 mph 5.8 mph 42 % 0 in
16:33 85.1 °F 59.4 °F 29.9 in SW 4.6 mph 4.6 mph 42 % 0 in
16:34 85.1 °F 59.4 °F 29.9 in WSW 6.4 mph 6.4 mph 42 % 0 in
16:39 84.7 °F 59.2 °F 29.9 in WSW 10.4 mph 10.4 mph 42 % 0 in
16:44 84.6 °F 58.8 °F 29.9 in WSW 4.6 mph 4.6 mph 42 % 0 in
16:49 84.6 °F 58.8 °F 29.9 in SW 5.9 mph 5.9 mph 42 % 0 in
16:54 84.2 °F 58.6 °F 29.9 in WSW 10.4 mph 10.4 mph 42 % 0 in
16:59 84 °F 59.2 °F 29.9 in WSW 5.8 mph 5.8 mph 43 % 0 in
17:04 84 °F 59.2 °F 29.9 in South 5.8 mph 5.8 mph 43 % 0 in
17:09 84 °F 59.7 °F 29.9 in SSW 5.8 mph 5.9 mph 44 % 0 in
17:14 83.8 °F 59.5 °F 29.9 in West 5.8 mph 5.8 mph 44 % 0 in
17:19 83.7 °F 59.4 °F 29.9 in SSW 6.9 mph 6.9 mph 44 % 0 in
17:24 83.3 °F 59.7 °F 29.9 in WSW 10.4 mph 10.4 mph 45 % 0 in
17:29 82.6 °F 59.7 °F 29.9 in SW 12.7 mph 12.7 mph 46 % 0 in
17:34 81.7 °F 60.6 °F 29.9 in SW 10.9 mph 10.9 mph 49 % 0 in
17:39 81 °F 61.2 °F 29.9 in SW 10.4 mph 10.4 mph 51 % 0 in
17:44 79.5 °F 61.9 °F 29.9 in South 6.9 mph 6.9 mph 55 % 0 in
17:49 78.4 °F 62.4 °F 29.9 in SW 10.4 mph 10.4 mph 58 % 0 in
17:54 77.9 °F 63 °F 29.9 in SW 7.8 mph 7.8 mph 60 % 0 in
17:59 77.7 °F 63.7 °F 29.9 in WSW 6.9 mph 6.9 mph 62 % 0 in
18:04 77.7 °F 63.7 °F 29.9 in SW 9.2 mph 9.2 mph 62 % 0 in
18:09 77.4 °F 64.2 °F 29.9 in South 8.1 mph 8.1 mph 64 % 0 in
18:14 77 °F 63.3 °F 29.9 in SW 5.6 mph 5.6 mph 63 % 0 in
18:19 77 °F 63.9 °F 29.9 in SW 5.8 mph 5.8 mph 64 % 0 in
18:24 77.2 °F 63.7 °F 29.9 in West 5.8 mph 5.8 mph 63 % 0 in
18:29 77.2 °F 63.7 °F 29.9 in SW 3.5 mph 3.5 mph 63 % 0 in
18:34 77.4 °F 63.9 °F 29.9 in SW 4.6 mph 4.6 mph 63 % 0 in
18:39 77.7 °F 63.7 °F 29.9 in West 4.6 mph 4.6 mph 62 % 0 in
18:44 77.7 °F 63.1 °F 29.9 in WSW 4.6 mph 4.6 mph 61 % 0 in
18:49 77.9 °F 63 °F 29.9 in West 3.5 mph 3.5 mph 60 % 0 in
18:54 78.1 °F 63.1 °F 29.9 in WSW 2 mph 2 mph 60 % 0 in
18:59 78.1 °F 63.1 °F 29.9 in SW 2.3 mph 2.3 mph 60 % 0 in
19:04 78.1 °F 62.1 °F 29.9 in WNW 3.5 mph 3.5 mph 58 % 0 in
19:09 78.3 °F 61.9 °F 29.9 in West 2.4 mph 2.4 mph 57 % 0 in
19:14 78.4 °F 61.3 °F 29.9 in West 2.3 mph 2.3 mph 56 % 0 in
19:15 78.4 °F 61.3 °F 29.9 in Calm   2 mph 56 % 0 in
19:20 78.8 °F 61.3 °F 29.9 in West 1.2 mph   55 % 0 in
19:25 78.8 °F 61.3 °F 29.9 in SW 3.6 mph 3.6 mph 55 % 0 in
19:30 78.6 °F 61.2 °F 29.9 in Calm   3 mph 55 % 0 in
19:35 78.6 °F 60.6 °F 29.9 in SW 1 mph 2 mph 54 % 0 in
19:40 78.6 °F 60.6 °F 29.9 in SW 2 mph 3 mph 54 % 0 in
19:45 78.4 °F 60.4 °F 29.9 in WSW 2.3 mph 2.3 mph 54 % 0 in
19:50 78.4 °F 60.4 °F 29.9 in Calm     54 % 0 in
19:55 78.3 °F 60.3 °F 29.9 in Calm     54 % 0 in
20:00 78.3 °F 60.3 °F 29.9 in Calm     54 % 0 in
20:05 78.1 °F 60.1 °F 29.9 in NNE 1.4 mph   54 % 0 in
20:10 78.1 °F 59.5 °F 29.9 in South 1.6 mph   53 % 0 in
20:15 78.1 °F 59.5 °F 29.9 in South 1.2 mph 1.4 mph 53 % 0 in
20:20 77.9 °F 59.9 °F 29.9 in Calm     54 % 0 in
20:25 77.7 °F 59.7 °F 29.9 in SW 2.3 mph 2.3 mph 54 % 0 in
20:30 77.5 °F 59.5 °F 29.9 in SW 1.4 mph 1.4 mph 54 % 0 in
20:35 77.2 °F 59.2 °F 29.9 in WSW 2.3 mph 2.3 mph 54 % 0 in
20:40 77 °F 59.2 °F 29.9 in WSW 2 mph 2 mph 54 % 0 in
20:45 73.4 °F 55.2 °F 29.9 in WSW 2 mph 3 mph 53 % 0 in
20:50 76.8 °F 59.4 °F 29.9 in WSW 2.3 mph 2.3 mph 55 % 0 in
20:55 76.8 °F 59.4 °F 29.9 in SW 2.3 mph 2.3 mph 55 % 0 in
21:00 76.6 °F 59.4 °F 29.9 in SW 2.4 mph 2.4 mph 55 % 0 in
21:05 72.7 °F 55 °F 29.9 in WSW 1 mph 2 mph 54 % 0 in
21:10 76.3 °F 59.4 °F 29.9 in WSW 2.6 mph 2.6 mph 56 % 0 in
21:15 76.3 °F 59.4 °F 29.9 in SW 2.4 mph 2.4 mph 56 % 0 in
21:20 76.3 °F 59.4 °F 29.9 in SW 2.4 mph 2.4 mph 56 % 0 in
21:25 76.1 °F 59.4 °F 29.9 in SW 3.5 mph 3.5 mph 56 % 0 in
21:30 76.1 °F 59.4 °F 29.9 in West 2.3 mph 2.3 mph 56 % 0 in
21:35 76.1 °F 59.4 °F 29.9 in WSW 2.3 mph 2.3 mph 56 % 0 in
21:40 76.1 °F 58.8 °F 29.9 in WSW 2.6 mph 2.6 mph 55 % 0 in
21:45 76.1 °F 58.8 °F 29.9 in Calm     55 % 0 in
21:55 76.3 °F 58.5 °F 29.9 in SW 2.3 mph 2.3 mph 54 % 0 in
22:00 76.3 °F 58.5 °F 29.9 in WSW 2.6 mph 2.6 mph 54 % 0 in
22:05 76.5 °F 58.1 °F 29.9 in West 3.5 mph 3.5 mph 53 % 0 in
22:10 76.6 °F 58.3 °F 29.9 in West 2.9 mph 2.9 mph 53 % 0 in
22:15 76.5 °F 57.6 °F 29.9 in SW 3.1 mph 3.1 mph 52 % 0 in
22:20 76.3 °F 57.4 °F 29.9 in SW 3.5 mph 3.5 mph 52 % 0 in
22:25 76.1 °F 57.2 °F 29.9 in South 2.6 mph 2.6 mph 52 % 0 in
22:30 75.7 °F 57.4 °F 29.9 in West 4.6 mph 4.6 mph 53 % 0 in
22:35 75.6 °F 57.2 °F 29.9 in WSW 3.5 mph 3.5 mph 53 % 0 in
22:40 75.7 °F 57.4 °F 29.9 in SW 2.4 mph 2.4 mph 53 % 0 in
22:45 75.6 °F 57.2 °F 29.9 in SW 2.3 mph 2.3 mph 53 % 0 in
22:50 75.4 °F 57 °F 29.9 in SW 2.4 mph 2.4 mph 53 % 0 in
22:55 75.2 °F 56.8 °F 29.9 in SW 2.3 mph 2.3 mph 53 % 0 in
23:00 75 °F 56.7 °F 29.9 in WSW 1.4 mph 1.4 mph 53 % 0 in
23:01 75 °F 56.7 °F 29.9 in SW 2.3 mph 2.3 mph 53 % 0 in
23:05 71.4 °F 54 °F 29.9 in SW 3 mph 4 mph 54 % 0 in
23:06 75.4 °F 57 °F 29.9 in SW 3.5 mph 3.5 mph 53 % 0 in
23:11 74.8 °F 56.7 °F 29.9 in SW 2.3 mph 2.3 mph 53 % 0 in
23:15 72 °F 54 °F 30 in SW 3 mph 5 mph 53 % 0 in
23:16 74.5 °F 56.1 °F 29.9 in WSW 2.4 mph 2.4 mph 53 % 0 in
23:21 74.3 °F 56.1 °F 29.9 in WSW 1.2 mph 1.2 mph 53 % 0 in
23:25 73.4 °F 54.1 °F 30 in SW 6 mph 10 mph 51 % 0 in
23:26 74.3 °F 56.1 °F 29.9 in WSW 1.2 mph   53 % 0 in
23:31 74.3 °F 55.6 °F 29.9 in Calm     52 % 0 in
23:35 72.9 °F 54.7 °F 30 in SW 8 mph 17 mph 53 % 0 in
23:36 74.5 °F 55.8 °F 29.9 in WSW 2.3 mph 2.3 mph 52 % 0 in
23:41 74.3 °F 56.1 °F 30 in SW 3.5 mph 3.5 mph 53 % 0 in
23:45 71.8 °F 55.2 °F 30 in SW 7 mph 10 mph 56 % 0 in
23:46 74.3 °F 56.1 °F 30 in SW 2.4 mph 2.4 mph 53 % 0 in
23:51 74.1 °F 55.9 °F 30 in SW 2.3 mph 2.3 mph 53 % 0 in
23:55 70 °F 56.8 °F 30 in WSW 3 mph 8 mph 63 % 0 in
23:56 73.9 °F 55.8 °F 29.9 in WSW 2.3 mph 2.3 mph 53 % 0 in
Meteo Sesrovires
Elogis d' Weather Underground - 3.5 mb

Guio original per  Jim McMurry - jmcmurry@mwt.net Adaptat per a la plantilla per  Wim van der Kuil - Leuven-Template.eu

Trobareu la nostra informacio del temps tambe a:

Weather Underground

AWEKAS